createdAt,value
2023-01-29T00:01:45.954Z,-0.38
2023-01-29T00:06:47.997Z,-0.34
2023-01-29T00:11:49.739Z,-0.43
2023-01-29T00:16:51.447Z,-0.36
2023-01-29T00:21:53.127Z,-0.39
2023-01-29T00:26:54.760Z,-0.40
2023-01-29T00:31:56.523Z,-0.44
2023-01-29T00:37:04.891Z,-0.38
2023-01-29T00:42:25.204Z,-0.40
2023-01-29T00:47:36.566Z,-0.42
2023-01-29T00:52:38.794Z,-0.40
2023-01-29T00:57:40.447Z,-0.37
2023-01-29T01:03:00.796Z,-0.38
2023-01-29T01:08:02.496Z,-0.43
2023-01-29T01:13:06.382Z,-0.44
2023-01-29T01:18:08.061Z,-0.43
2023-01-29T01:23:09.710Z,-0.48
2023-01-29T01:28:11.391Z,-0.46
2023-01-29T01:33:13.318Z,-0.44
2023-01-29T01:38:14.951Z,-0.38
2023-01-29T01:43:16.596Z,-0.45
2023-01-29T01:48:24.217Z,-0.41
2023-01-29T01:54:07.062Z,-0.45
2023-01-29T01:59:12.111Z,-0.48
2023-01-29T02:04:40.407Z,-0.42
2023-01-29T02:09:46.957Z,-0.44
2023-01-29T02:14:48.710Z,-0.42
2023-01-29T02:20:14.621Z,-0.43
2023-01-29T02:25:41.154Z,-0.45
2023-01-29T02:30:58.396Z,-0.45
2023-01-29T02:36:15.171Z,-0.44
2023-01-29T02:41:40.564Z,-0.44
2023-01-29T02:46:48.203Z,-0.44
2023-01-29T02:52:15.118Z,-0.44
2023-01-29T02:57:48.719Z,-0.43
2023-01-29T03:03:12.882Z,-0.47
2023-01-29T03:08:20.541Z,-0.45
2023-01-29T03:13:32.245Z,-0.44
2023-01-29T03:18:43.804Z,-0.45
2023-01-29T03:24:03.973Z,-0.47
2023-01-29T03:29:27.789Z,-0.45
2023-01-29T03:34:35.287Z,-0.45
2023-01-29T03:39:37.112Z,-0.46
2023-01-29T03:44:49.033Z,-0.43
2023-01-29T03:50:00.945Z,-0.47
2023-01-29T03:55:15.584Z,-0.47
2023-01-29T04:00:27.972Z,-0.44
2023-01-29T04:05:34.586Z,-0.46
2023-01-29T04:10:39.005Z,-0.43
2023-01-29T04:15:48.244Z,-0.42
2023-01-29T04:20:50.253Z,-0.45
2023-01-29T04:26:14.446Z,-0.45
2023-01-29T04:31:17.019Z,-0.43
2023-01-29T04:36:41.653Z,-0.49
2023-01-29T04:41:54.400Z,-0.50
2023-01-29T04:47:08.279Z,-0.46
2023-01-29T04:52:19.805Z,-0.47
2023-01-29T04:57:32.097Z,-0.49
2023-01-29T05:02:36.353Z,-0.45
2023-01-29T05:07:39.516Z,-0.44
2023-01-29T05:12:45.921Z,-0.44
2023-01-29T05:17:47.846Z,-0.49
2023-01-29T05:22:49.630Z,-0.45
2023-01-29T05:28:05.489Z,-0.47
2023-01-29T05:33:16.896Z,-0.45
2023-01-29T05:38:20.187Z,-0.47
2023-01-29T05:43:25.418Z,-0.46
2023-01-29T05:48:29.174Z,-0.48
2023-01-29T05:53:31.742Z,-0.48
2023-01-29T05:58:34.251Z,-0.49
2023-01-29T06:03:35.887Z,-0.49
2023-01-29T06:08:37.606Z,-0.51
2023-01-29T06:13:39.643Z,-0.57
2023-01-29T06:18:41.939Z,-0.54
2023-01-29T06:23:43.568Z,-0.54
2023-01-29T06:28:48.415Z,-0.56
2023-01-29T06:33:50.073Z,-0.58
2023-01-29T06:38:51.709Z,-0.58
2023-01-29T06:43:53.444Z,-0.58
2023-01-29T06:48:58.832Z,-0.56
2023-01-29T06:54:00.563Z,-0.54
2023-01-29T06:59:02.752Z,-0.52
2023-01-29T07:04:04.604Z,-0.56
2023-01-29T07:09:06.357Z,-0.51
2023-01-29T07:14:08.227Z,-0.52
2023-01-29T07:19:09.931Z,-0.48
2023-01-29T07:24:11.725Z,-0.46
2023-01-29T07:29:13.438Z,-0.49
2023-01-29T07:34:15.097Z,-0.54
2023-01-29T07:39:16.782Z,-0.50
2023-01-29T07:44:18.485Z,-0.58
2023-01-29T07:49:20.279Z,-0.55
2023-01-29T07:54:21.947Z,-0.64
2023-01-29T07:59:23.684Z,-0.49
2023-01-29T08:04:25.558Z,-0.53
2023-01-29T08:09:27.208Z,-0.59
2023-01-29T08:14:28.863Z,-0.53
2023-01-29T08:19:30.605Z,-0.42
2023-01-29T08:24:47.444Z,-0.43
2023-01-29T08:29:54.510Z,-0.40
2023-01-29T08:34:56.178Z,-0.36
2023-01-29T08:39:57.976Z,-0.26
2023-01-29T08:44:59.728Z,-0.21
2023-01-29T08:50:01.376Z,-0.16
2023-01-29T08:55:03.173Z,-0.15
2023-01-29T09:00:07.517Z,-0.10
2023-01-29T09:05:10.300Z,0.01
2023-01-29T09:10:12.516Z,0.04
2023-01-29T09:15:14.286Z,0.12
2023-01-29T09:20:16.397Z,0.17
2023-01-29T09:25:18.616Z,0.39
2023-01-29T09:30:20.661Z,0.44
2023-01-29T09:35:23.825Z,0.39
2023-01-29T09:40:34.695Z,0.32
2023-01-29T09:45:37.190Z,0.29
2023-01-29T09:50:43.725Z,0.33
2023-01-29T09:56:02.811Z,0.33
2023-01-29T10:01:19.442Z,0.28
2023-01-29T10:06:47.966Z,0.23
2023-01-29T10:12:08.207Z,0.29
2023-01-29T10:17:35.058Z,0.38
2023-01-29T10:22:53.796Z,0.36
2023-01-29T10:27:58.830Z,0.31
2023-01-29T10:33:06.129Z,0.31
2023-01-29T10:38:33.851Z,0.27
2023-01-29T10:43:44.887Z,0.35
2023-01-29T10:49:00.535Z,0.36
2023-01-29T10:54:20.457Z,0.37
2023-01-29T10:59:31.111Z,0.39
2023-01-29T11:04:35.415Z,0.35
2023-01-29T11:09:47.961Z,0.29
2023-01-29T11:15:07.099Z,0.37
2023-01-29T11:20:27.245Z,0.37
2023-01-29T11:25:32.780Z,0.41
2023-01-29T11:30:43.429Z,0.42
2023-01-29T11:35:45.687Z,0.46
2023-01-29T11:40:47.962Z,0.52
2023-01-29T11:45:53.704Z,0.59
2023-01-29T11:51:00.684Z,0.49
2023-01-29T11:56:07.332Z,0.51
2023-01-29T12:01:10.012Z,0.55
2023-01-29T12:06:22.859Z,0.54
2023-01-29T12:11:35.633Z,0.57
2023-01-29T12:17:03.567Z,0.57
2023-01-29T12:22:25.118Z,0.77
2023-01-29T12:27:59.432Z,0.58
2023-01-29T12:33:15.108Z,0.41
2023-01-29T12:38:23.023Z,0.49
2023-01-29T12:43:48.272Z,0.57
2023-01-29T12:48:51.313Z,0.51
2023-01-29T12:53:59.899Z,0.51
2023-01-29T12:59:10.123Z,0.51
2023-01-29T13:04:30.937Z,0.53
2023-01-29T13:09:35.454Z,0.54
2023-01-29T13:14:53.247Z,0.55
2023-01-29T13:20:00.806Z,0.57
2023-01-29T13:25:05.680Z,0.51
2023-01-29T13:30:08.929Z,0.50
2023-01-29T13:35:16.003Z,0.53
2023-01-29T13:40:25.943Z,0.46
2023-01-29T13:45:33.510Z,0.54
2023-01-29T13:50:41.508Z,0.46
2023-01-29T13:55:44.103Z,0.35
2023-01-29T14:00:48.765Z,0.42
2023-01-29T14:06:03.840Z,0.44
2023-01-29T14:11:21.155Z,0.44
2023-01-29T14:16:22.971Z,0.42
2023-01-29T14:21:38.204Z,0.48
2023-01-29T14:26:44.040Z,0.45
2023-01-29T14:31:56.318Z,0.43
2023-01-29T14:37:03.319Z,0.37
2023-01-29T14:42:36.604Z,0.36
2023-01-29T14:47:38.433Z,0.31
2023-01-29T14:52:43.477Z,0.36
2023-01-29T14:57:46.522Z,0.34
2023-01-29T15:03:01.427Z,0.36
2023-01-29T15:08:10.063Z,0.37
2023-01-29T15:13:15.664Z,0.41
2023-01-29T15:18:42.475Z,0.36
2023-01-29T15:23:45.188Z,0.33
2023-01-29T15:29:03.571Z,0.32
2023-01-29T15:34:07.787Z,0.35
2023-01-29T15:39:09.560Z,0.31
2023-01-29T15:44:17.515Z,0.33
2023-01-29T15:49:29.559Z,0.31
2023-01-29T15:54:34.289Z,0.26
2023-01-29T15:59:43.880Z,0.32
2023-01-29T16:04:46.758Z,0.22
2023-01-29T16:09:50.093Z,0.24
2023-01-29T16:14:56.712Z,0.23
2023-01-29T16:20:00.549Z,0.27
2023-01-29T16:25:20.370Z,0.25
2023-01-29T16:30:28.806Z,0.24
2023-01-29T16:35:33.835Z,0.26
2023-01-29T16:40:38.374Z,0.26
2023-01-29T16:45:40.854Z,0.27
2023-01-29T16:50:54.312Z,0.26
2023-01-29T16:56:05.845Z,0.25
2023-01-29T17:01:11.682Z,0.24
2023-01-29T17:06:21.836Z,0.24
2023-01-29T17:11:40.305Z,0.21
2023-01-29T17:17:02.172Z,0.20
2023-01-29T17:22:07.848Z,0.22
2023-01-29T17:27:22.092Z,0.27
2023-01-29T17:32:43.949Z,0.24
2023-01-29T17:37:49.623Z,0.22
2023-01-29T17:42:52.109Z,0.21
2023-01-29T17:47:54.343Z,0.16
2023-01-29T17:52:56.925Z,0.18
2023-01-29T17:57:59.103Z,0.19
2023-01-29T18:03:02.624Z,0.21
2023-01-29T18:08:05.404Z,0.14
2023-01-29T18:13:07.916Z,0.16
2023-01-29T18:18:23.094Z,0.17
2023-01-29T18:23:26.053Z,0.16
2023-01-29T18:28:28.513Z,0.15
2023-01-29T18:33:31.640Z,0.16
2023-01-29T18:38:34.135Z,0.15
2023-01-29T18:43:37.944Z,0.13
2023-01-29T18:48:43.850Z,0.13
2023-01-29T18:53:52.267Z,0.14
2023-01-29T18:58:57.777Z,0.12
2023-01-29T19:04:03.917Z,0.11
2023-01-29T19:09:06.209Z,0.07
2023-01-29T19:14:09.445Z,0.11
2023-01-29T19:19:12.210Z,0.11
2023-01-29T19:24:14.931Z,0.10
2023-01-29T19:29:17.892Z,0.08
2023-01-29T19:34:20.524Z,0.08
2023-01-29T19:39:23.077Z,0.02
2023-01-29T19:44:26.126Z,0.04
2023-01-29T19:49:31.480Z,-0.07
2023-01-29T19:54:34.134Z,0.03
2023-01-29T19:59:36.706Z,0.00
2023-01-29T20:04:40.394Z,-0.21
2023-01-29T20:09:43.133Z,-0.01
2023-01-29T20:14:49.529Z,-0.10
2023-01-29T20:19:51.970Z,0.03
2023-01-29T20:24:56.848Z,0.01
2023-01-29T20:30:00.758Z,-0.01
2023-01-29T20:35:03.876Z,0.01
2023-01-29T20:40:06.993Z,-0.04
2023-01-29T20:45:11.518Z,-0.04
2023-01-29T20:50:16.347Z,0.01
2023-01-29T20:55:19.250Z,-0.01
2023-01-29T21:00:22.826Z,0.01
2023-01-29T21:05:25.750Z,-0.04
2023-01-29T21:10:28.426Z,0.01
2023-01-29T21:15:31.705Z,-0.10
2023-01-29T21:20:35.359Z,-0.03
2023-01-29T21:25:38.887Z,-0.11
2023-01-29T21:30:40.769Z,-0.02
2023-01-29T21:35:42.575Z,-0.08
2023-01-29T21:40:44.585Z,-0.08
2023-01-29T21:45:47.739Z,-0.13
2023-01-29T21:50:49.542Z,-0.11
2023-01-29T21:55:51.982Z,-0.04
2023-01-29T22:00:53.677Z,-0.10
2023-01-29T22:05:55.517Z,-0.14
2023-01-29T22:10:57.237Z,-0.14
2023-01-29T22:15:59.001Z,-0.04
2023-01-29T22:21:02.971Z,-0.03
2023-01-29T22:26:06.754Z,-0.09
2023-01-29T22:31:08.430Z,-0.13
2023-01-29T22:36:10.375Z,-0.09
2023-01-29T22:41:12.132Z,-0.13
2023-01-29T22:46:14.127Z,-0.16
2023-01-29T22:51:15.944Z,-0.16
2023-01-29T22:56:18.907Z,-0.21
2023-01-29T23:01:22.758Z,-0.21
2023-01-29T23:06:24.670Z,-0.25
2023-01-29T23:11:26.317Z,-0.40
2023-01-29T23:16:28.703Z,-0.47
2023-01-29T23:21:30.588Z,-0.41
2023-01-29T23:26:50.703Z,-0.41
2023-01-29T23:31:52.431Z,-0.41
2023-01-29T23:36:54.504Z,-0.48
2023-01-29T23:41:56.238Z,-0.51
2023-01-29T23:46:58.018Z,-0.54
2023-01-29T23:51:59.741Z,-0.59
2023-01-29T23:57:01.438Z,-0.68
